createdAt,value
2023-09-01T00:00:53.146Z,9.10
2023-09-01T00:03:49.122Z,8.87
2023-09-01T00:06:19.452Z,8.70
2023-09-01T00:08:49.638Z,8.57
2023-09-01T00:11:18.790Z,8.97
2023-09-01T00:13:49.165Z,8.97
2023-09-01T00:16:18.479Z,8.80
2023-09-01T00:18:48.927Z,8.90
2023-09-01T00:21:19.259Z,9.33
2023-09-01T00:23:49.612Z,9.10
2023-09-01T00:26:18.417Z,8.93
2023-09-01T00:28:50.278Z,9.10
2023-09-01T00:31:20.722Z,9.43
2023-09-01T00:33:49.488Z,9.00
2023-09-01T00:36:18.223Z,9.00
2023-09-01T00:38:48.232Z,8.80
2023-09-01T00:41:16.979Z,9.20
2023-09-01T00:43:45.894Z,9.07
2023-09-01T00:46:14.929Z,9.27
2023-09-01T00:48:43.998Z,8.87
2023-09-01T00:51:13.105Z,8.87
2023-09-01T00:53:42.127Z,8.90
2023-09-01T00:56:12.706Z,9.20
2023-09-01T00:58:43.167Z,8.90
2023-09-01T01:01:12.163Z,9.17
2023-09-01T01:03:42.414Z,9.47
2023-09-01T01:06:22.675Z,8.87
2023-09-01T01:09:04.933Z,8.90
2023-09-01T01:11:46.452Z,8.83
2023-09-01T01:14:26.040Z,9.13
2023-09-01T01:16:56.636Z,8.87
2023-09-01T01:19:48.931Z,9.17
2023-09-01T01:22:29.575Z,8.80
2023-09-01T01:25:00.256Z,8.90
2023-09-01T01:27:29.551Z,8.80
2023-09-01T01:29:58.597Z,9.00
2023-09-01T01:32:27.778Z,9.00
2023-09-01T01:35:06.030Z,8.70
2023-09-01T01:37:43.732Z,9.10
2023-09-01T01:40:15.467Z,9.00
2023-09-01T01:42:47.697Z,8.83
2023-09-01T01:45:21.757Z,9.40
2023-09-01T01:47:51.833Z,9.00
2023-09-01T01:50:20.586Z,9.00
2023-09-01T01:52:49.364Z,9.30
2023-09-01T01:55:20.026Z,8.90
2023-09-01T01:57:49.027Z,9.00
2023-09-01T02:00:18.361Z,9.20
2023-09-01T02:02:47.190Z,9.13
2023-09-01T02:05:15.973Z,9.10
2023-09-01T02:07:44.478Z,8.93
2023-09-01T02:10:12.880Z,9.10
2023-09-01T02:12:42.988Z,8.90
2023-09-01T02:15:12.526Z,9.20
2023-09-01T02:17:41.847Z,9.10
2023-09-01T02:20:18.012Z,9.07
2023-09-01T02:22:49.080Z,8.90
2023-09-01T02:25:18.144Z,9.00
2023-09-01T02:27:48.535Z,9.13
2023-09-01T02:30:17.748Z,8.70
2023-09-01T02:32:46.204Z,9.53
2023-09-01T02:35:14.452Z,9.23
2023-09-01T02:37:42.706Z,9.80
2023-09-01T02:40:12.738Z,9.20
2023-09-01T02:42:42.602Z,8.90
2023-09-01T02:45:13.483Z,9.20
2023-09-01T02:47:44.450Z,9.37
2023-09-01T02:50:13.202Z,8.97
2023-09-01T02:52:41.452Z,9.47
2023-09-01T02:55:10.869Z,9.23
2023-09-01T02:57:38.999Z,9.30
2023-09-01T03:00:19.439Z,9.20
2023-09-01T03:02:50.166Z,9.23
2023-09-01T03:05:18.811Z,9.47
2023-09-01T03:07:47.012Z,9.17
2023-09-01T03:10:15.231Z,9.67
2023-09-01T03:12:43.415Z,9.23
2023-09-01T03:15:12.877Z,9.30
2023-09-01T03:17:41.341Z,9.10
2023-09-01T03:20:13.479Z,9.13
2023-09-01T03:22:41.729Z,8.90
2023-09-01T03:25:11.748Z,9.67
2023-09-01T03:27:41.549Z,9.30
2023-09-01T03:30:13.226Z,9.40
2023-09-01T03:32:44.158Z,9.47
2023-09-01T03:35:13.776Z,9.33
2023-09-01T03:37:42.234Z,9.47
2023-09-01T03:40:12.044Z,9.23
2023-09-01T03:42:41.262Z,9.10
2023-09-01T03:45:10.276Z,9.33
2023-09-01T03:47:38.578Z,9.10
2023-09-01T03:50:08.193Z,9.30
2023-09-01T03:52:38.271Z,9.23
2023-09-01T03:55:09.141Z,9.70
2023-09-01T03:57:37.342Z,9.27
2023-09-01T04:00:11.732Z,9.30
2023-09-01T04:02:42.399Z,9.33
2023-09-01T04:05:11.480Z,9.27
2023-09-01T04:07:41.008Z,9.13
2023-09-01T04:10:10.587Z,9.20
2023-09-01T04:12:38.788Z,9.90
2023-09-01T04:15:08.652Z,9.20
2023-09-01T04:17:38.543Z,9.00
2023-09-01T04:20:11.276Z,9.47
2023-09-01T04:22:40.874Z,9.40
2023-09-01T04:25:09.617Z,9.30
2023-09-01T04:27:37.822Z,9.83
2023-09-01T04:30:10.895Z,9.20
2023-09-01T04:32:42.153Z,9.60
2023-09-01T04:35:10.944Z,9.50
2023-09-01T04:37:40.637Z,9.10
2023-09-01T04:40:11.169Z,9.20
2023-09-01T04:42:39.355Z,9.30
2023-09-01T04:45:09.427Z,9.50
2023-09-01T04:47:37.893Z,9.10
2023-09-01T04:50:07.863Z,9.47
2023-09-01T04:52:43.220Z,9.10
2023-09-01T04:55:14.739Z,9.10
2023-09-01T04:57:43.801Z,9.67
2023-09-01T05:00:18.196Z,9.20
2023-09-01T05:02:48.448Z,9.07
2023-09-01T05:05:17.389Z,9.30
2023-09-01T05:07:47.510Z,9.00
2023-09-01T05:10:18.381Z,9.73
2023-09-01T05:12:47.252Z,9.10
2023-09-01T05:15:16.258Z,9.40
2023-09-01T05:17:44.473Z,9.87
2023-09-01T05:20:13.522Z,9.80
2023-09-01T05:22:41.743Z,8.80
2023-09-01T05:25:12.144Z,9.00
2023-09-01T05:27:41.647Z,8.80
2023-09-01T05:30:10.710Z,9.20
2023-09-01T05:32:38.895Z,9.00
2023-09-01T05:35:09.033Z,9.03
2023-09-01T05:37:37.208Z,9.23
2023-09-01T05:40:06.964Z,8.90
2023-09-01T05:42:35.099Z,8.87
2023-09-01T05:45:05.631Z,9.10
2023-09-01T05:47:35.726Z,9.13
2023-09-01T05:50:05.150Z,9.10
2023-09-01T05:52:33.360Z,8.90
2023-09-01T05:55:01.569Z,9.33
2023-09-01T05:57:29.747Z,9.40
2023-09-01T05:59:59.504Z,8.90
2023-09-01T06:02:29.253Z,9.30
2023-09-01T06:04:57.515Z,9.07
2023-09-01T06:07:25.693Z,9.30
2023-09-01T06:09:53.894Z,9.17
2023-09-01T06:12:22.078Z,9.00
2023-09-01T06:14:50.220Z,9.27
2023-09-01T06:19:48.095Z,9.00
2023-09-01T06:22:16.277Z,9.13
2023-09-01T06:24:44.456Z,9.10
2023-09-01T06:27:12.634Z,8.90
2023-09-01T06:29:40.786Z,8.93
2023-09-01T06:32:12.665Z,8.80
2023-09-01T06:34:41.027Z,9.27
2023-09-01T06:37:10.675Z,8.97
2023-09-01T06:39:38.848Z,9.30
2023-09-01T06:42:07.985Z,9.47
2023-09-01T06:44:36.292Z,8.93
2023-09-01T06:47:05.000Z,8.90
2023-09-01T06:49:33.182Z,9.00
2023-09-01T06:52:01.346Z,9.27
2023-09-01T06:54:30.891Z,9.17
2023-09-01T06:56:59.066Z,8.70
2023-09-01T06:59:27.249Z,9.00
2023-09-01T07:01:55.546Z,8.80
2023-09-01T07:04:23.795Z,8.97
2023-09-01T07:06:51.996Z,8.90
2023-09-01T07:09:20.577Z,8.60
2023-09-01T07:11:50.082Z,9.10
2023-09-01T07:14:18.268Z,9.00
2023-09-01T07:16:46.447Z,9.00
2023-09-01T07:19:14.641Z,8.70
2023-09-01T07:21:42.954Z,8.63
2023-09-01T07:24:13.100Z,8.90
2023-09-01T07:26:41.325Z,8.97
2023-09-01T07:29:10.845Z,8.97
2023-09-01T07:31:39.122Z,8.83
2023-09-01T07:34:07.339Z,9.20
2023-09-01T07:36:35.584Z,8.40
2023-09-01T07:39:03.844Z,9.30
2023-09-01T07:41:32.062Z,8.60
2023-09-01T07:44:00.291Z,9.10
2023-09-01T07:46:34.416Z,8.87
2023-09-01T07:49:03.142Z,8.90
2023-09-01T07:51:31.372Z,8.80
2023-09-01T07:54:00.250Z,8.60
2023-09-01T07:56:28.864Z,8.83
2023-09-01T07:58:57.164Z,8.70
2023-09-01T08:01:25.545Z,8.60
2023-09-01T08:03:55.578Z,8.70
2023-09-01T08:06:23.806Z,8.73
2023-09-01T08:08:52.596Z,8.70
2023-09-01T08:11:20.911Z,8.70
2023-09-01T08:13:49.153Z,8.70
2023-09-01T08:16:18.595Z,8.43
2023-09-01T08:18:47.026Z,8.60
2023-09-01T08:21:16.721Z,8.70
2023-09-01T08:23:45.002Z,8.53
2023-09-01T08:26:13.564Z,8.40
2023-09-01T08:28:42.451Z,8.30
2023-09-01T08:31:11.026Z,8.20
2023-09-01T08:33:39.545Z,8.10
2023-09-01T08:36:09.289Z,8.20
2023-09-01T08:38:40.371Z,8.23
2023-09-01T08:41:10.386Z,8.13
2023-09-01T08:43:40.649Z,8.30
2023-09-01T08:46:15.243Z,8.30
2023-09-01T08:48:44.564Z,8.43
2023-09-01T08:51:15.962Z,8.20
2023-09-01T08:53:46.568Z,8.37
2023-09-01T08:56:14.919Z,8.20
2023-09-01T08:58:45.208Z,8.40
2023-09-01T09:01:14.965Z,7.90
2023-09-01T09:03:43.917Z,8.10
2023-09-01T09:06:14.996Z,7.90
2023-09-01T09:08:45.420Z,8.20
2023-09-01T09:11:15.385Z,8.20
2023-09-01T09:13:51.241Z,8.40
2023-09-01T09:16:25.695Z,8.13
2023-09-01T09:18:54.482Z,8.10
2023-09-01T09:21:29.043Z,8.20
2023-09-01T09:24:19.862Z,8.20
2023-09-01T09:26:57.589Z,8.40
2023-09-01T09:29:25.967Z,8.10
2023-09-01T09:31:54.735Z,8.30
2023-09-01T09:34:25.200Z,7.97
2023-09-01T09:36:54.174Z,8.20
2023-09-01T09:39:26.044Z,8.00
2023-09-01T09:41:54.857Z,7.90
2023-09-01T09:44:26.014Z,8.20
2023-09-01T09:46:56.482Z,8.20
2023-09-01T09:49:26.721Z,8.00
2023-09-01T09:51:56.725Z,7.80
2023-09-01T09:54:27.972Z,8.00
2023-09-01T09:57:19.302Z,8.10
2023-09-01T10:00:07.531Z,7.60
2023-09-01T10:03:02.417Z,7.90
2023-09-01T10:05:42.658Z,7.90
2023-09-01T10:08:12.527Z,8.03
2023-09-01T10:10:44.146Z,7.63
2023-09-01T10:13:14.925Z,7.90
2023-09-01T10:15:44.572Z,7.80
2023-09-01T10:18:13.445Z,7.90
2023-09-01T10:20:45.516Z,7.80
2023-09-01T10:23:15.322Z,7.80
2023-09-01T10:26:15.876Z,7.80
2023-09-01T10:28:59.373Z,7.90
2023-09-01T10:31:28.329Z,7.90
2023-09-01T10:34:09.122Z,7.73
2023-09-01T10:36:38.978Z,7.97
2023-09-01T10:39:24.547Z,7.80
2023-09-01T10:41:58.749Z,8.00
2023-09-01T10:45:09.921Z,8.00
2023-09-01T10:47:47.728Z,7.87
2023-09-01T10:50:18.038Z,7.90
2023-09-01T10:52:48.103Z,7.90
2023-09-01T10:55:17.362Z,7.50
2023-09-01T10:57:50.252Z,7.87
2023-09-01T11:00:30.289Z,7.77
2023-09-01T11:03:40.692Z,7.80
2023-09-01T11:06:09.343Z,7.60
2023-09-01T11:08:37.681Z,7.57
2023-09-01T11:11:10.818Z,7.57
2023-09-01T11:13:40.622Z,7.70
2023-09-01T11:16:13.105Z,8.00
2023-09-01T11:18:42.107Z,7.50
2023-09-01T11:21:11.752Z,7.60
2023-09-01T11:23:40.786Z,7.80
2023-09-01T11:26:09.804Z,7.80
2023-09-01T11:28:38.183Z,7.70
2023-09-01T11:31:07.773Z,7.70
2023-09-01T11:33:38.666Z,8.00
2023-09-01T11:36:09.012Z,7.87
2023-09-01T11:38:37.334Z,7.57
2023-09-01T11:41:13.044Z,7.87
2023-09-01T11:43:41.961Z,7.90
2023-09-01T11:46:12.636Z,7.70
2023-09-01T11:48:42.292Z,7.90
2023-09-01T11:51:12.120Z,7.67
2023-09-01T11:53:41.536Z,7.60
2023-09-01T11:56:22.375Z,7.70
2023-09-01T11:58:55.904Z,8.00
2023-09-01T12:01:31.228Z,7.70
2023-09-01T12:04:07.602Z,7.63
2023-09-01T12:06:45.715Z,7.70
2023-09-01T12:09:16.413Z,7.60
2023-09-01T12:11:54.906Z,7.60
2023-09-01T12:14:24.815Z,7.80
2023-09-01T12:16:55.047Z,7.80
2023-09-01T12:19:24.739Z,7.90
2023-09-01T12:21:54.282Z,7.80
2023-09-01T12:24:23.065Z,7.70
2023-09-01T12:26:52.503Z,7.60
2023-09-01T12:29:21.843Z,7.70
2023-09-01T12:31:50.517Z,7.70
2023-09-01T12:34:20.698Z,7.60
2023-09-01T12:36:50.737Z,7.60
2023-09-01T12:39:19.452Z,7.80
2023-09-01T12:41:47.805Z,7.67
2023-09-01T12:44:16.136Z,7.90
2023-09-01T12:46:44.721Z,7.70
2023-09-01T12:49:13.288Z,7.73
2023-09-01T12:51:44.653Z,7.50
2023-09-01T12:54:14.418Z,7.70
2023-09-01T12:56:44.396Z,7.90
2023-09-01T12:59:13.056Z,7.80
2023-09-01T13:01:41.776Z,7.70
2023-09-01T13:04:10.619Z,7.73
2023-09-01T13:06:40.030Z,7.70
2023-09-01T13:09:10.378Z,7.60
2023-09-01T13:11:39.418Z,7.70
2023-09-01T13:14:07.797Z,7.70
2023-09-01T13:16:36.410Z,7.70
2023-09-01T13:19:05.007Z,7.83
2023-09-01T13:21:33.610Z,7.70
2023-09-01T13:24:02.178Z,7.60
2023-09-01T13:26:32.228Z,7.90
2023-09-01T13:29:01.261Z,8.00
2023-09-01T13:31:30.213Z,7.90
2023-09-01T13:33:59.348Z,7.67
2023-09-01T13:36:29.211Z,7.70
2023-09-01T13:38:57.953Z,7.90
2023-09-01T13:41:26.623Z,7.70
2023-09-01T13:43:56.983Z,7.90
2023-09-01T13:46:27.998Z,7.80
2023-09-01T13:48:58.230Z,7.70
2023-09-01T13:51:28.187Z,7.57
2023-09-01T13:53:58.591Z,7.60
2023-09-01T13:56:27.364Z,7.57
2023-09-01T13:58:58.332Z,7.60
2023-09-01T14:01:26.845Z,7.60
2023-09-01T14:03:55.679Z,7.60
2023-09-01T14:06:24.502Z,7.60
2023-09-01T14:08:53.289Z,7.70
2023-09-01T14:11:22.040Z,7.90
2023-09-01T14:13:50.921Z,7.60
2023-09-01T14:16:29.582Z,7.50
2023-09-01T14:19:01.364Z,7.70
2023-09-01T14:21:30.157Z,7.57
2023-09-01T14:23:58.867Z,7.70
2023-09-01T14:26:28.080Z,7.70
2023-09-01T14:28:56.951Z,7.70
2023-09-01T14:31:27.185Z,7.73
2023-09-01T14:33:58.648Z,7.50
2023-09-01T14:36:27.142Z,7.60
2023-09-01T14:49:26.003Z,7.90
2023-09-01T14:51:54.668Z,7.70
2023-09-01T14:54:23.840Z,7.80
2023-09-01T14:56:52.872Z,7.67
2023-09-01T14:59:32.031Z,7.80
2023-09-01T15:02:05.698Z,7.57
2023-09-01T15:04:36.230Z,7.67
2023-09-01T15:07:21.286Z,7.60
2023-09-01T15:09:50.080Z,7.60
2023-09-01T15:12:18.459Z,7.70
2023-09-01T15:14:46.572Z,7.80
2023-09-01T15:17:14.918Z,7.97
2023-09-01T15:19:44.613Z,7.60
2023-09-01T15:22:13.164Z,7.87
2023-09-01T15:24:42.161Z,7.80
2023-09-01T15:27:11.558Z,7.70
2023-09-01T15:29:43.424Z,7.70
2023-09-01T15:32:12.822Z,7.90
2023-09-01T15:34:41.767Z,7.50
2023-09-01T15:37:11.979Z,7.70
2023-09-01T15:39:40.530Z,8.00
2023-09-01T15:42:09.098Z,7.70
2023-09-01T15:44:37.751Z,7.60
2023-09-01T15:47:06.317Z,7.87
2023-09-01T15:49:35.140Z,7.60
2023-09-01T15:52:04.036Z,7.57
2023-09-01T15:54:34.199Z,7.60
2023-09-01T15:57:03.977Z,7.90
2023-09-01T15:59:33.184Z,7.70
2023-09-01T16:02:02.183Z,7.97
2023-09-01T16:04:31.386Z,7.90
2023-09-01T16:07:01.792Z,7.80
2023-09-01T16:09:30.421Z,8.27
2023-09-01T16:12:00.564Z,8.90
2023-09-01T16:14:29.624Z,8.60
2023-09-01T16:17:00.415Z,8.30
2023-09-01T16:19:29.925Z,8.03
2023-09-01T16:21:59.488Z,8.17
2023-09-01T16:24:28.621Z,8.00
2023-09-01T16:26:57.640Z,8.07
2023-09-01T16:29:27.920Z,7.67
2023-09-01T16:31:56.961Z,7.70
2023-09-01T16:34:26.079Z,8.00
2023-09-01T16:36:54.668Z,7.73
2023-09-01T16:39:22.833Z,8.20
2023-09-01T16:41:51.030Z,7.97
2023-09-01T16:44:19.152Z,8.00
2023-09-01T16:46:48.678Z,7.97
2023-09-01T16:49:16.825Z,7.87
2023-09-01T16:51:45.353Z,8.00
2023-09-01T16:54:13.742Z,8.00
2023-09-01T16:56:41.913Z,8.30
2023-09-01T16:59:10.066Z,8.20
2023-09-01T17:01:46.902Z,8.00
2023-09-01T17:04:17.046Z,8.10
2023-09-01T17:06:46.230Z,7.97
2023-09-01T17:12:22.407Z,8.10
2023-09-01T17:14:50.858Z,7.80
2023-09-01T17:17:19.311Z,8.00
2023-09-01T17:19:48.854Z,8.10
2023-09-01T17:22:17.019Z,8.00
2023-09-01T17:24:45.164Z,8.00
2023-09-01T17:27:13.352Z,7.90
2023-09-01T17:29:41.512Z,8.10
2023-09-01T17:32:10.098Z,8.10
2023-09-01T17:34:38.251Z,8.00
2023-09-01T17:37:08.621Z,7.70
2023-09-01T17:39:39.469Z,7.90
2023-09-01T17:42:07.842Z,7.80
2023-09-01T17:44:36.124Z,8.10
2023-09-01T17:47:05.062Z,7.80
2023-09-01T17:49:33.288Z,8.23
2023-09-01T17:52:01.474Z,8.07
2023-09-01T17:54:30.993Z,8.00
2023-09-01T17:56:59.153Z,7.90
2023-09-01T17:59:27.365Z,8.00
2023-09-01T18:01:56.090Z,7.97
2023-09-01T18:04:24.534Z,8.20
2023-09-01T18:06:52.735Z,8.23
2023-09-01T18:09:21.273Z,8.20
2023-09-01T18:11:53.836Z,8.07
2023-09-01T18:14:22.231Z,8.00
2023-09-01T18:16:50.528Z,7.90
2023-09-01T18:19:19.813Z,7.80
2023-09-01T18:21:48.032Z,8.20
2023-09-01T18:24:20.087Z,8.23
2023-09-01T18:26:48.276Z,8.20
2023-09-01T18:29:22.831Z,8.20
2023-09-01T18:31:52.961Z,7.87
2023-09-01T18:34:21.595Z,8.00
2023-09-01T18:36:54.017Z,8.30
2023-09-01T18:39:26.284Z,8.13
2023-09-01T18:41:56.218Z,9.10
2023-09-01T18:44:26.738Z,9.50
2023-09-01T18:46:55.690Z,9.30
2023-09-01T18:49:25.780Z,8.70
2023-09-01T18:51:54.162Z,8.60
2023-09-01T18:54:27.734Z,8.60
2023-09-01T18:56:57.616Z,8.43
2023-09-01T18:59:28.440Z,8.83
2023-09-01T19:01:57.586Z,8.40
2023-09-01T19:04:26.351Z,8.30
2023-09-01T19:06:54.521Z,8.50
2023-09-01T19:09:25.197Z,8.13
2023-09-01T19:11:53.365Z,8.30
2023-09-01T19:14:21.805Z,8.37
2023-09-01T19:16:52.206Z,8.33
2023-09-01T19:19:22.569Z,8.10
2023-09-01T19:21:51.564Z,8.20
2023-09-01T19:24:20.741Z,8.10
2023-09-01T19:26:49.782Z,8.00
2023-09-01T19:29:25.172Z,8.20
2023-09-01T19:31:57.593Z,8.13
2023-09-01T19:34:26.695Z,8.20
2023-09-01T19:36:55.827Z,8.20
2023-09-01T19:39:27.299Z,8.20
2023-09-01T19:41:59.659Z,8.00
2023-09-01T19:44:28.507Z,8.20
2023-09-01T19:47:00.079Z,8.00
2023-09-01T19:49:28.907Z,8.20
2023-09-01T19:51:57.602Z,8.00
2023-09-01T19:54:29.328Z,8.13
2023-09-01T19:56:58.410Z,7.93
2023-09-01T19:59:29.798Z,8.20
2023-09-01T20:02:00.276Z,8.20
2023-09-01T20:04:29.618Z,8.03
2023-09-01T20:06:58.297Z,8.30
2023-09-01T20:09:26.681Z,8.37
2023-09-01T20:11:55.138Z,8.50
2023-09-01T20:15:05.717Z,8.73
2023-09-01T20:17:35.936Z,8.50
2023-09-01T20:23:28.565Z,8.40
2023-09-01T20:25:57.124Z,8.30
2023-09-01T20:28:25.568Z,8.20
2023-09-01T20:30:53.732Z,8.00
2023-09-01T20:33:23.651Z,8.60
2023-09-01T20:35:52.142Z,8.40
2023-09-01T20:38:20.400Z,8.40
2023-09-01T20:40:48.913Z,8.17
2023-09-01T20:43:17.775Z,8.40
2023-09-01T20:45:52.054Z,8.57
2023-09-01T20:48:20.746Z,8.53
2023-09-01T20:50:50.345Z,8.60
2023-09-01T20:53:18.753Z,8.40
2023-09-01T20:55:47.097Z,8.50
2023-09-01T20:58:15.402Z,8.20
2023-09-01T21:00:43.602Z,8.40
2023-09-01T21:03:11.961Z,8.10
2023-09-01T21:05:40.344Z,7.80
2023-09-01T21:08:09.972Z,8.10
2023-09-01T21:10:38.179Z,7.90
2023-09-01T21:13:06.361Z,8.20
2023-09-01T21:15:34.523Z,8.30
2023-09-01T21:18:02.834Z,8.30
2023-09-01T21:20:31.117Z,7.90
2023-09-01T21:22:59.315Z,8.00
2023-09-01T21:25:29.018Z,8.40
2023-09-01T21:27:57.982Z,8.20
2023-09-01T21:30:26.310Z,8.10
2023-09-01T21:32:54.652Z,7.83
2023-09-01T21:35:22.925Z,8.20
2023-09-01T21:37:51.106Z,8.10
2023-09-01T21:40:19.332Z,8.17
2023-09-01T21:42:48.872Z,8.10
2023-09-01T21:45:17.138Z,8.40
2023-09-01T21:47:45.872Z,8.10
2023-09-01T21:50:14.895Z,8.10
2023-09-01T21:52:43.063Z,8.07
2023-09-01T21:55:11.458Z,8.10
2023-09-01T21:57:39.600Z,8.00
2023-09-01T22:00:10.479Z,8.23
2023-09-01T22:02:40.934Z,7.90
2023-09-01T22:05:09.666Z,8.10
2023-09-01T22:07:37.891Z,8.17
2023-09-01T22:10:07.999Z,8.10
2023-09-01T22:12:36.218Z,8.00
2023-09-01T22:15:04.502Z,7.80
2023-09-01T22:17:34.054Z,7.80
2023-09-01T22:20:02.288Z,7.90
2023-09-01T22:22:30.981Z,8.07
2023-09-01T22:24:59.131Z,7.80
2023-09-01T22:27:27.319Z,8.03
2023-09-01T22:29:55.489Z,8.00
2023-09-01T22:32:23.648Z,7.97
2023-09-01T22:34:53.182Z,7.97
2023-09-01T22:37:21.412Z,8.10
2023-09-01T22:39:49.571Z,8.10
2023-09-01T22:42:17.730Z,8.20
2023-09-01T22:44:45.908Z,8.20
2023-09-01T22:47:14.149Z,8.00
2023-09-01T22:49:42.404Z,8.27
2023-09-01T22:52:11.967Z,8.07
2023-09-01T22:54:40.265Z,8.23
2023-09-01T22:57:08.409Z,8.00
2023-09-01T22:59:36.616Z,8.20
2023-09-01T23:02:04.956Z,8.10
2023-09-01T23:04:33.117Z,8.00
2023-09-01T23:07:01.237Z,7.77
2023-09-01T23:09:30.896Z,7.90
2023-09-01T23:11:59.048Z,8.00
2023-09-01T23:14:27.242Z,7.90
2023-09-01T23:16:55.404Z,8.10
2023-09-01T23:19:23.563Z,8.10
2023-09-01T23:21:51.742Z,7.87
2023-09-01T23:24:20.570Z,8.20
2023-09-01T23:26:50.109Z,8.10
2023-09-01T23:29:19.611Z,7.80
2023-09-01T23:31:50.706Z,8.03
2023-09-01T23:34:18.932Z,8.00
2023-09-01T23:36:47.101Z,7.90
2023-09-01T23:39:15.264Z,8.20
2023-09-01T23:41:46.583Z,7.93
2023-09-01T23:44:16.093Z,8.10
2023-09-01T23:46:44.307Z,7.73
2023-09-01T23:49:12.545Z,8.10
2023-09-01T23:51:40.712Z,7.80
2023-09-01T23:54:08.993Z,7.90
2023-09-01T23:56:37.206Z,8.30
2023-09-01T23:59:05.407Z,8.20
